Time;durP1;ratioP1;P1;durP2;ratioP2;P2;SDS_P1;SDS_P2;PMS_P1;PMS_P2;Temp;Humidity;BMP_temperature;BMP_pressure;BME280_temperature;BME280_humidity;BME280_pressure;Samples;Min_cycle;Max_cycle;Signal;HPM_P1;HPM_P2
2022/03/26 00:35:42;;;;;;;0.03;0.03;;;;;;;6.73;58.96;99974.84;6287707;22;20018;31
2022/03/26 00:38:08;;;;;;;0.00;0.00;;;;;;;6.58;58.83;99967.28;6196353;22;19964;-82
2022/03/26 00:40:34;;;;;;;0.00;0.00;;;;;;;6.62;59.43;99975.63;6319862;22;20003;-81
2022/03/26 00:43:19;;;;;;;1.00;0.80;;;;;;;6.69;59.15;99979.00;6188561;22;19999;-82
2022/03/26 00:46:36;;;;;;;0.10;0.10;;;;;;;6.66;57.60;99963.47;6215284;22;20070;-80
2022/03/26 00:49:01;;;;;;;0.00;0.00;;;;;;;6.76;55.97;99984.19;6186213;22;20066;-80
2022/03/26 00:51:42;;;;;;;0.00;0.00;;;;;;;6.76;54.81;99974.38;6183882;22;20004;-81
2022/03/26 00:54:10;;;;;;;0.00;0.00;;;;;;;6.68;54.29;99985.34;6309457;22;20046;-79
2022/03/26 00:56:36;;;;;;;;;;;;;;;6.63;53.47;99982.53;6177490;22;20018;-78
2022/03/26 00:59:03;;;;;;;0.00;0.00;;;;;;;6.64;53.41;99984.16;6174916;22;20245;-79
2022/03/26 01:01:29;;;;;;;0.10;0.10;;;;;;;6.52;54.20;99984.13;6180181;22;20006;-79
2022/03/26 01:03:54;;;;;;;0.00;0.00;;;;;;;6.47;54.46;99987.47;6179527;22;20003;-79
2022/03/26 01:06:20;;;;;;;0.00;0.00;;;;;;;6.39;54.40;99993.88;6177391;22;20433;-78
2022/03/26 01:11:34;;;;;;;;;;;;;;;6.46;54.09;99995.63;6303101;22;20236;-81
2022/03/26 01:14:00;;;;;;;0.00;0.00;;;;;;;6.52;53.91;99997.44;6285469;22;19907;-80
2022/03/26 01:16:27;;;;;;;0.00;0.00;;;;;;;6.33;54.03;99986.81;6281959;22;20064;-80
2022/03/26 01:18:55;;;;;;;0.20;0.20;;;;;;;6.28;54.95;100001.81;6282965;22;20011;-80
2022/03/26 01:21:21;;;;;;;0.00;0.00;;;;;;;6.19;55.08;100003.94;6285207;22;20033;-81
2022/03/26 01:36:45;;;;;;;0.00;0.00;;;;;;;6.01;55.02;100002.94;6257706;22;20131;-80
2022/03/26 01:39:12;;;;;;;0.00;0.00;;;;;;;5.96;55.60;100002.78;6281749;22;20094;-80
2022/03/26 01:52:22;;;;;;;0.00;0.00;;;;;;;5.73;59.50;100019.34;6311424;22;20049;-79
2022/03/26 01:54:47;;;;;;;0.00;0.00;;;;;;;5.81;59.10;100016.41;6282612;22;20403;-78
2022/03/26 01:57:47;;;;;;;0.20;0.20;;;;;;;5.98;58.37;100013.16;6281661;22;20021;-82
2022/03/26 02:17:57;;;;;;;0.00;0.00;;;;;;;5.31;56.11;100054.44;6285361;22;20041;-80
2022/03/26 02:29:10;;;;;;;0.00;0.00;;;;;;;4.96;56.15;100055.66;6133999;23;20029;-80
2022/03/26 02:31:36;;;;;;;0.00;0.00;;;;;;;4.97;55.83;100061.81;6225129;23;20148;-81
2022/03/26 02:34:09;;;;;;;0.00;0.00;;;;;;;4.93;56.39;100063.22;6239441;22;20002;-81
2022/03/26 02:37:35;;;;;;;0.00;0.00;;;;;;;4.85;57.07;100064.31;6255249;22;20027;-81
2022/03/26 02:40:21;;;;;;;0.00;0.00;;;;;;;4.78;57.71;100069.63;6317684;22;20030;-79
2022/03/26 02:42:46;;;;;;;0.00;0.00;;;;;;;4.78;57.49;100071.47;6282663;22;20011;-80
2022/03/26 02:45:12;;;;;;;0.00;0.00;;;;;;;4.75;57.39;100071.91;6282042;22;20434;-79
2022/03/26 02:47:37;;;;;;;0.00;0.00;;;;;;;4.67;57.42;100074.81;6280678;22;19999;-79
2022/03/26 02:50:04;;;;;;;0.00;0.00;;;;;;;4.63;57.52;100069.91;6280966;22;20053;-80
2022/03/26 02:52:29;;;;;;;0.00;0.00;;;;;;;4.59;58.16;100081.16;6282787;22;20058;-80
2022/03/26 03:03:10;;;;;;;0.00;0.00;;;;;;;4.35;58.90;100078.19;6313516;22;20041;-82
2022/03/26 03:06:20;;;;;;;0.00;0.00;;;;;;;4.47;58.99;100084.47;6290552;22;20011;-83
2022/03/26 03:50:20;;;;;;;0.00;0.00;;;;;;;4.45;58.20;100115.63;6247372;23;20102;-81
2022/03/26 03:52:46;;;;;;;0.00;0.00;;;;;;;4.39;58.32;100113.81;6247299;22;20397;-81
2022/03/26 03:55:11;;;;;;;0.00;0.00;;;;;;;4.39;58.02;100113.03;6283535;22;20072;-80
2022/03/26 04:24:31;;;;;;;0.00;0.00;;;;;;;4.09;58.20;100132.84;6298276;22;20227;31
2022/03/26 04:26:56;;;;;;;0.00;0.00;;;;;;;4.07;58.61;100134.09;6279196;22;20514;-81
2022/03/26 04:42:18;;;;;;;0.00;0.00;;;;;;;4.95;57.82;100138.88;6306466;22;20015;-81
2022/03/26 04:44:43;;;;;;;0.00;0.00;;;;;;;5.21;57.45;100137.13;6282507;22;20007;-80
2022/03/26 04:47:48;;;;;;;0.52;0.52;;;;;;;5.55;56.46;100132.38;6322655;22;20019;-81
2022/03/26 04:50:19;;;;;;;0.00;0.00;;;;;;;5.82;55.99;100150.75;6298549;22;20022;-81
2022/03/26 04:52:45;;;;;;;0.00;0.00;;;;;;;6.14;55.76;100148.06;6296003;22;20029;-80
2022/03/26 04:55:26;;;;;;;0.00;0.00;;;;;;;6.50;54.79;100158.94;6270901;22;20023;-80
2022/03/26 04:57:55;;;;;;;0.00;0.00;;;;;;;6.83;53.72;100163.06;6300380;22;20075;-82
2022/03/26 05:00:29;;;;;;;0.00;0.00;;;;;;;7.18;52.56;100157.09;6301877;22;20057;-82
2022/03/26 05:03:46;;;;;;;0.00;0.00;;;;;;;7.55;51.98;100164.94;6290332;22;19991;-83
2022/03/26 05:27:28;;;;;;;2.10;0.52;;;;;;;10.34;44.13;100157.75;6307050;22;20403;-88
2022/03/26 05:30:10;;;;;;;0.38;0.32;;;;;;;10.64;44.16;100166.44;6278005;22;20011;-87
2022/03/26 05:32:35;;;;;;;0.00;0.00;;;;;;;10.95;43.84;100161.44;6277473;22;20003;-87
2022/03/26 05:35:01;;;;;;;0.00;0.00;;;;;;;11.19;42.28;100170.84;6277936;22;20043;-85
2022/03/26 05:37:26;;;;;;;0.00;0.00;;;;;;;11.31;41.29;100165.31;6277621;22;20013;-90
2022/03/26 05:39:52;;;;;;;0.00;0.00;;;;;;;11.44;40.33;100171.34;6277572;22;20009;-89
2022/03/26 05:42:19;;;;;;;0.00;0.00;;;;;;;11.48;39.91;100169.75;6278152;22;20007;-86
2022/03/26 05:44:45;;;;;;;0.10;0.10;;;;;;;11.55;40.27;100173.03;6278025;22;20015;-88
2022/03/26 05:47:13;;;;;;;0.00;0.00;;;;;;;11.64;40.45;100170.69;6278170;22;20353;-88
2022/03/26 05:49:39;;;;;;;0.00;0.00;;;;;;;11.70;40.40;100169.69;6278015;22;20068;-86
2022/03/26 05:52:05;;;;;;;0.22;0.22;;;;;;;11.78;40.35;100176.44;6277736;22;20037;-82
2022/03/26 05:54:31;;;;;;;0.05;0.05;;;;;;;11.82;40.48;100185.59;6277903;22;20003;-88
2022/03/26 05:56:56;;;;;;;0.03;0.03;;;;;;;11.79;40.21;100188.78;6278081;22;20066;-84
2022/03/26 05:59:24;;;;;;;0.00;0.00;;;;;;;11.80;40.48;100193.06;6275244;22;20060;-82
2022/03/26 06:01:51;;;;;;;0.00;0.00;;;;;;;11.74;41.18;100186.84;6277557;22;20007;-80
2022/03/26 06:04:17;;;;;;;0.00;0.00;;;;;;;11.77;41.74;100197.06;6305217;22;20006;-82
2022/03/26 06:06:43;;;;;;;0.25;0.25;;;;;;;11.83;42.06;100188.00;6278134;22;20349;-77
2022/03/26 06:09:09;;;;;;;0.20;0.15;;;;;;;11.88;41.66;100192.59;6305404;22;20030;-78
2022/03/26 06:11:35;;;;;;;0.10;0.10;;;;;;;11.81;41.57;100195.50;6275868;22;20534;-79
2022/03/26 06:14:01;;;;;;;0.00;0.00;;;;;;;11.80;41.62;100196.59;6224256;22;20003;-77
2022/03/26 06:16:26;;;;;;;0.00;0.00;;;;;;;11.78;43.03;100203.22;6304294;22;19999;-76
2022/03/26 06:18:52;;;;;;;0.00;0.00;;;;;;;11.76;42.68;100202.69;6304248;22;20003;-78
2022/03/26 06:21:18;;;;;;;0.30;0.30;;;;;;;11.75;43.16;100206.44;6275626;22;20128;-77
2022/03/26 06:23:44;;;;;;;0.10;0.10;;;;;;;11.70;44.12;100207.19;6276627;22;20098;-77
2022/03/26 06:26:10;;;;;;;0.57;0.57;;;;;;;11.69;44.12;100208.25;6276224;22;20042;-78
2022/03/26 06:28:37;;;;;;;0.05;0.05;;;;;;;11.71;43.92;100210.69;6276550;22;20086;-80
2022/03/26 06:31:03;;;;;;;0.00;0.00;;;;;;;11.78;43.67;100205.91;6303352;22;20090;-78
2022/03/26 06:33:29;;;;;;;0.52;0.52;;;;;;;11.90;44.22;100213.78;6276311;22;20090;-80
2022/03/26 06:35:54;;;;;;;0.10;0.10;;;;;;;11.91;43.25;100216.22;6276111;22;20397;-81
2022/03/26 06:38:20;;;;;;;0.10;0.10;;;;;;;11.90;44.28;100217.28;6277104;22;20072;-78
2022/03/26 06:40:46;;;;;;;0.00;0.00;;;;;;;12.02;44.25;100214.44;6276003;22;20086;-84
2022/03/26 06:43:12;;;;;;;0.10;0.10;;;;;;;12.16;44.43;100210.28;6275771;22;20003;-82
2022/03/26 06:45:40;;;;;;;0.00;0.00;;;;;;;12.25;43.39;100209.78;6276572;22;20076;-81
2022/03/26 06:48:06;;;;;;;0.00;0.00;;;;;;;12.32;44.06;100213.84;6276270;22;20014;-85
2022/03/26 06:50:32;;;;;;;0.22;0.22;;;;;;;12.47;43.53;100220.38;6276205;22;20003;-82
2022/03/26 06:52:59;;;;;;;0.10;0.10;;;;;;;12.44;43.49;100218.25;6276473;22;19999;-84
2022/03/26 06:55:25;;;;;;;0.00;0.00;;;;;;;12.52;44.28;100227.66;6276585;22;20045;-79
2022/03/26 06:57:51;;;;;;;0.00;0.00;;;;;;;12.55;43.79;100216.41;6274979;22;20035;-80
2022/03/26 07:00:17;;;;;;;0.05;0.05;;;;;;;12.66;43.85;100223.44;6276559;22;20080;-82
2022/03/26 07:02:44;;;;;;;0.60;0.60;;;;;;;12.72;43.56;100230.47;6276117;22;20011;-80
2022/03/26 07:05:11;;;;;;;0.10;0.10;;;;;;;12.88;42.40;100236.69;6274999;22;20043;-82
2022/03/26 07:07:37;;;;;;;0.00;0.00;;;;;;;12.94;42.65;100232.97;6276324;22;20011;-77
2022/03/26 07:10:04;;;;;;;0.00;0.00;;;;;;;13.03;42.13;100230.56;6276576;22;20015;-77
2022/03/26 07:12:30;;;;;;;0.20;0.20;;;;;;;13.14;41.63;100239.47;6275609;22;20026;-77
2022/03/26 07:14:56;;;;;;;0.00;0.00;;;;;;;13.21;41.16;100232.00;6275453;22;20014;-77
2022/03/26 07:17:22;;;;;;;0.00;0.00;;;;;;;13.13;40.16;100238.69;6275964;22;20011;-77
2022/03/26 07:19:48;;;;;;;0.00;0.00;;;;;;;13.06;40.47;100235.44;6300893;22;20022;-77
2022/03/26 07:22:14;;;;;;;2.63;0.65;;;;;;;13.03;40.39;100237.84;6303604;22;20003;-77
2022/03/26 07:24:40;;;;;;;0.00;0.00;;;;;;;13.05;40.04;100233.81;6303619;22;20003;-75
2022/03/26 07:27:06;;;;;;;0.00;0.00;;;;;;;13.10;39.77;100227.66;6303395;22;20035;-79
2022/03/26 07:29:41;;;;;;;0.10;0.10;;;;;;;13.11;40.06;100240.81;6303777;22;20064;-77
2022/03/26 07:32:09;;;;;;;3.08;0.73;;;;;;;13.13;39.75;100233.31;6303171;22;20007;-79
2022/03/26 07:34:35;;;;;;;0.03;0.03;;;;;;;13.27;39.04;100243.56;6275582;22;20009;-79
2022/03/26 07:37:01;;;;;;;0.10;0.10;;;;;;;13.32;38.55;100232.00;6275806;22;20356;-78
2022/03/26 07:39:27;;;;;;;0.17;0.17;;;;;;;13.33;37.92;100237.13;6276941;22;20015;-80
2022/03/26 07:41:53;;;;;;;0.10;0.10;;;;;;;13.21;36.20;100248.09;6275606;22;20007;-79
2022/03/26 07:44:19;;;;;;;0.00;0.00;;;;;;;13.09;36.16;100239.47;6275817;22;20007;-77
2022/03/26 07:46:45;;;;;;;0.15;0.15;;;;;;;13.04;36.68;100242.94;6303690;22;20460;-85
2022/03/26 07:49:11;;;;;;;0.00;0.00;;;;;;;13.00;37.20;100241.03;6274745;22;20007;-80
2022/03/26 07:51:37;;;;;;;0.38;0.38;;;;;;;12.96;37.38;100243.44;6275519;22;20023;-78
2022/03/26 07:54:02;;;;;;;0.00;0.00;;;;;;;12.89;36.62;100246.38;6276099;22;20014;-78
2022/03/26 07:56:28;;;;;;;0.00;0.00;;;;;;;12.75;37.44;100242.53;6275839;22;19999;-78
2022/03/26 07:58:54;;;;;;;0.40;0.40;;;;;;;12.77;37.58;100248.47;6275508;22;20345;-79
2022/03/26 08:01:20;;;;;;;0.00;0.00;;;;;;;12.80;37.05;100238.03;6275779;22;20433;-87
2022/03/26 08:03:46;;;;;;;0.30;0.30;;;;;;;12.80;38.13;100234.50;6301817;22;20014;-79
2022/03/26 08:06:12;;;;;;;0.25;0.25;;;;;;;12.84;37.56;100238.31;6276547;22;20003;-76
2022/03/26 08:08:40;;;;;;;0.00;0.00;;;;;;;12.77;36.79;100227.00;6276203;22;20008;-85
2022/03/26 08:11:05;;;;;;;1.85;1.75;;;;;;;12.70;36.62;100232.59;6276886;22;20007;-79
2022/03/26 08:13:33;;;;;;;1.25;0.52;;;;;;;12.71;37.01;100228.84;6276989;22;20008;-77
2022/03/26 08:15:59;;;;;;;0.17;0.17;;;;;;;12.80;36.97;100231.81;6303974;22;20007;-79
2022/03/26 08:18:25;;;;;;;0.00;0.00;;;;;;;12.86;36.11;100230.78;6276937;22;20011;-83
2022/03/26 08:20:51;;;;;;;0.00;0.00;;;;;;;12.94;35.62;100238.34;6277042;22;20436;-78
2022/03/26 08:23:16;;;;;;;0.20;0.20;;;;;;;12.89;34.70;100230.28;6304469;22;20007;-78
2022/03/26 08:28:27;;;;;;;0.03;0.03;;;;;;;12.97;34.42;100234.31;6304268;22;20027;-78
2022/03/26 08:30:52;;;;;;;0.00;0.00;;;;;;;13.00;36.10;100227.63;6277045;22;20432;-78
2022/03/26 08:33:19;;;;;;;0.00;0.00;;;;;;;13.10;36.06;100228.47;6304445;22;20391;-78
2022/03/26 08:35:46;;;;;;;0.20;0.20;;;;;;;13.24;33.51;100225.28;6276770;22;20065;-78
2022/03/26 08:38:12;;;;;;;0.20;0.20;;;;;;;13.34;33.91;100230.69;6304280;22;20075;-78
2022/03/26 08:40:38;;;;;;;0.10;0.10;;;;;;;13.37;33.20;100224.78;6277121;22;20007;-78
2022/03/26 08:43:06;;;;;;;0.00;0.00;;;;;;;13.42;32.63;100216.75;6276908;22;20011;-78
2022/03/26 08:45:32;;;;;;;0.65;0.65;;;;;;;13.47;31.93;100221.34;6278081;22;20007;-79
2022/03/26 08:47:58;;;;;;;0.00;0.00;;;;;;;13.54;33.75;100219.19;6306354;22;20007;-79
2022/03/26 08:50:25;;;;;;;0.10;0.10;;;;;;;13.61;35.01;100211.69;6279365;22;20010;-79
2022/03/26 08:52:51;;;;;;;0.00;0.00;;;;;;;13.66;35.46;100208.19;6278366;22;20045;-79
2022/03/26 08:55:18;;;;;;;0.00;0.00;;;;;;;13.77;35.46;100211.69;6278845;22;20031;-79
2022/03/26 08:57:44;;;;;;;0.00;0.00;;;;;;;13.81;34.91;100207.38;6279044;22;20039;-79
2022/03/26 09:00:12;;;;;;;0.05;0.05;;;;;;;13.86;33.58;100203.91;6305941;22;20030;-78
2022/03/26 09:02:39;;;;;;;0.00;0.00;;;;;;;13.87;33.73;100200.94;6278872;22;20003;-79
2022/03/26 09:05:06;;;;;;;0.55;0.55;;;;;;;13.89;34.24;100196.09;6278642;22;20003;-78
2022/03/26 09:07:33;;;;;;;0.85;0.85;;;;;;;13.90;34.42;100189.66;6278728;22;20038;-78
2022/03/26 09:09:58;;;;;;;0.00;0.00;;;;;;;13.98;34.13;100192.88;6278584;22;20086;-79
2022/03/26 09:12:24;;;;;;;0.38;0.38;;;;;;;14.01;34.44;100186.94;6278900;22;20084;-78
2022/03/26 09:14:49;;;;;;;0.20;0.20;;;;;;;14.07;34.29;100173.22;6278623;22;20004;-78
2022/03/26 09:17:15;;;;;;;0.30;0.30;;;;;;;14.11;34.48;100173.50;6278880;22;20056;-78
2022/03/26 09:19:40;;;;;;;0.50;0.50;;;;;;;14.11;34.00;100178.06;6305674;22;20448;-78
2022/03/26 09:22:06;;;;;;;0.00;0.00;;;;;;;14.15;34.44;100165.69;6278472;22;20018;-78
2022/03/26 09:24:31;;;;;;;0.00;0.00;;;;;;;14.14;34.56;100166.75;6278638;22;20027;-78
2022/03/26 09:26:57;;;;;;;0.10;0.10;;;;;;;14.19;34.69;100169.44;6277940;22;20020;-78
2022/03/26 09:29:22;;;;;;;0.00;0.00;;;;;;;14.22;34.21;100168.88;6278741;22;20022;-78
2022/03/26 09:31:48;;;;;;;0.00;0.00;;;;;;;14.25;35.60;100157.59;6278733;22;20008;-78
2022/03/26 09:34:13;;;;;;;0.03;0.03;;;;;;;14.36;35.89;100166.44;6278505;22;20103;-78
2022/03/26 09:36:40;;;;;;;0.10;0.10;;;;;;;14.45;34.65;100159.38;6278595;22;20029;-78
2022/03/26 09:39:05;;;;;;;0.13;0.13;;;;;;;14.45;33.83;100169.38;6278166;22;20003;-78
2022/03/26 09:41:32;;;;;;;0.10;0.10;;;;;;;14.34;32.62;100157.81;6278610;22;20074;-78
2022/03/26 09:43:58;;;;;;;0.00;0.00;;;;;;;14.22;33.17;100156.25;6278256;22;20011;-78
2022/03/26 09:46:24;;;;;;;0.22;0.22;;;;;;;14.11;32.92;100156.53;6278530;22;20010;-78
2022/03/26 09:48:50;;;;;;;0.00;0.00;;;;;;;14.05;33.94;100147.69;6278088;22;19999;-78
2022/03/26 09:51:20;;;;;;;0.00;0.00;;;;;;;14.02;33.79;100146.31;6278552;22;19999;-78
2022/03/26 09:53:49;;;;;;;0.55;0.55;;;;;;;13.83;33.81;100146.09;6305817;22;20003;-79
2022/03/26 09:56:15;;;;;;;0.10;0.10;;;;;;;13.70;33.67;100150.13;6278085;22;20007;-79
2022/03/26 09:58:41;;;;;;;0.10;0.10;;;;;;;13.63;33.72;100148.78;6278043;22;20086;-78
2022/03/26 10:01:06;;;;;;;0.73;0.73;;;;;;;13.59;33.74;100143.16;6277948;22;20034;-77
2022/03/26 10:03:33;;;;;;;0.43;0.43;;;;;;;13.58;33.61;100145.00;6278212;22;20003;-77
2022/03/26 10:06:04;;;;;;;0.47;0.47;;;;;;;13.61;33.86;100132.94;6278090;22;20014;-78
2022/03/26 10:08:34;;;;;;;0.00;0.00;;;;;;;13.59;33.95;100125.13;6278213;22;20027;-78
2022/03/26 10:11:00;;;;;;;0.03;0.03;;;;;;;13.68;34.19;100124.59;6278098;22;20013;-78
2022/03/26 10:13:40;;;;;;;0.08;0.08;;;;;;;13.81;33.54;100117.88;6278268;22;20011;-79
2022/03/26 10:16:08;;;;;;;0.10;0.10;;;;;;;13.90;32.93;100116.22;6278107;22;20007;-78
2022/03/26 10:18:36;;;;;;;0.00;0.00;;;;;;;14.00;32.62;100115.41;6305623;22;20227;-79
2022/03/26 10:21:05;;;;;;;0.47;0.47;;;;;;;14.07;32.00;100116.75;6277745;22;20456;-79
2022/03/26 10:23:30;;;;;;;0.10;0.10;;;;;;;14.17;32.68;100118.59;6278081;22;20011;-79
2022/03/26 10:26:10;;;;;;;0.00;0.00;;;;;;;14.27;32.27;100114.25;6277252;22;20356;-79
2022/03/26 10:28:36;;;;;;;0.10;0.10;;;;;;;14.39;32.93;100114.75;6277928;22;20003;-78
2022/03/26 10:34:21;;;;;;;0.10;0.10;;;;;;;14.54;30.98;100095.06;6304806;22;20156;-78
2022/03/26 10:36:57;;;;;;;0.57;0.57;;;;;;;14.60;31.50;100090.44;6297463;22;20013;-78
2022/03/26 10:39:25;;;;;;;21.40;2.30;;;;;;;14.68;31.32;100095.28;6277923;22;19999;-78
2022/03/26 10:41:57;;;;;;;0.22;0.22;;;;;;;14.73;31.71;100087.16;6277799;22;20343;-78
2022/03/26 10:44:25;;;;;;;0.00;0.00;;;;;;;14.80;31.79;100090.34;6277798;22;20010;-78
2022/03/26 10:46:52;;;;;;;1.02;0.90;;;;;;;14.91;30.77;100087.63;6305278;22;20286;-78
2022/03/26 10:49:37;;;;;;;0.00;0.00;;;;;;;15.00;30.16;100080.53;6277842;22;20007;-78
2022/03/26 10:52:09;;;;;;;0.10;0.10;;;;;;;15.07;30.07;100081.03;6277415;22;20003;-78
2022/03/26 10:54:34;;;;;;;0.35;0.28;;;;;;;15.05;27.42;100073.22;6277807;22;20013;-77
2022/03/26 10:57:01;;;;;;;0.10;0.10;;;;;;;15.02;27.73;100063.00;6304912;22;20070;-77
2022/03/26 10:59:28;;;;;;;0.65;0.40;;;;;;;15.13;28.32;100071.03;6305140;22;20008;-78
2022/03/26 11:01:53;;;;;;;0.00;0.00;;;;;;;15.16;26.97;100065.88;6277792;22;20003;-79
2022/03/26 11:04:19;;;;;;;0.10;0.10;;;;;;;15.26;27.16;100061.47;6277525;22;20061;-80
2022/03/26 11:06:47;;;;;;;0.00;0.00;;;;;;;15.32;27.03;100063.06;6277661;22;20003;-78
2022/03/26 11:09:15;;;;;;;0.15;0.15;;;;;;;15.37;26.53;100050.34;6277193;22;20010;-79
2022/03/26 11:11:41;;;;;;;0.08;0.08;;;;;;;15.46;25.97;100057.81;6304788;22;20092;-78
2022/03/26 11:14:18;;;;;;;0.25;0.25;;;;;;;15.51;27.04;100046.97;6277382;22;20497;-78
2022/03/26 11:17:02;;;;;;;0.33;0.20;;;;;;;15.61;26.07;100049.59;6277648;22;20003;-78
2022/03/26 11:19:30;;;;;;;0.68;0.68;;;;;;;15.68;24.89;100051.94;6277392;22;20237;-78
2022/03/26 11:22:04;;;;;;;;;;;;;;;15.73;25.50;100043.78;6305021;22;20003;-78
2022/03/26 11:24:48;;;;;;;0.25;0.25;;;;;;;15.77;25.54;100039.44;6304823;22;19994;-79
2022/03/26 11:27:52;;;;;;;0.00;0.00;;;;;;;15.83;25.75;100038.34;6304523;22;20022;-78
2022/03/26 11:30:45;;;;;;;0.20;0.20;;;;;;;15.89;25.17;100022.09;6304773;22;20381;-79
2022/03/26 11:33:12;;;;;;;0.10;0.10;;;;;;;15.93;24.76;100021.22;6246583;22;20007;-78
2022/03/26 11:35:58;;;;;;;0.10;0.10;;;;;;;15.97;25.05;100014.16;6304788;22;20003;-79
2022/03/26 11:38:27;;;;;;;0.03;0.03;;;;;;;16.05;24.81;100015.44;6304843;22;19999;-79
2022/03/26 11:41:10;;;;;;;0.25;0.25;;;;;;;16.11;25.10;99994.56;6277314;22;20341;-79
2022/03/26 11:43:42;;;;;;;0.32;0.32;;;;;;;16.24;24.98;100003.88;6277314;22;20016;-79
2022/03/26 11:51:40;;;;;;;0.75;0.75;;;;;;;16.38;25.04;99991.25;6304334;22;20538;-79
2022/03/26 11:54:14;;;;;;;0.03;0.03;;;;;;;16.44;25.80;99990.09;6304576;22;20044;-79
2022/03/26 11:56:40;;;;;;;0.00;0.00;;;;;;;16.45;24.39;99988.19;6304647;22;20010;-79
2022/03/26 11:59:07;;;;;;;0.30;0.30;;;;;;;16.50;25.18;99977.28;6276934;22;20007;-79
2022/03/26 12:01:40;;;;;;;0.00;0.00;;;;;;;16.54;24.01;99978.34;6304252;22;20082;-79
2022/03/26 12:04:17;;;;;;;0.10;0.10;;;;;;;16.55;24.48;99971.03;6304275;22;20003;-79
2022/03/26 12:06:49;;;;;;;0.00;0.00;;;;;;;16.60;23.92;99966.34;6304722;22;20003;-79
2022/03/26 12:09:31;;;;;;;0.35;0.35;;;;;;;16.64;24.45;99966.56;6276854;22;20476;-79
2022/03/26 12:12:06;;;;;;;0.10;0.10;;;;;;;16.68;22.52;99966.78;6276705;22;20100;-79
2022/03/26 12:14:36;;;;;;;0.20;0.20;;;;;;;16.65;22.65;99960.88;6304216;22;20344;-79
2022/03/26 12:17:04;;;;;;;0.10;0.10;;;;;;;16.65;23.60;99954.69;6276780;22;20082;-79
2022/03/26 12:19:41;;;;;;;0.10;0.10;;;;;;;16.72;22.36;99960.50;6304503;22;20070;-79
2022/03/26 12:22:32;;;;;;;0.20;0.20;;;;;;;16.71;22.78;99948.09;6278808;22;20034;-79
2022/03/26 12:25:02;;;;;;;0.22;0.22;;;;;;;16.82;22.25;99935.22;6278852;22;20007;-77
2022/03/26 12:27:28;;;;;;;0.00;0.00;;;;;;;16.85;21.89;99934.63;6278940;22;20027;-79
2022/03/26 12:29:55;;;;;;;0.10;0.10;;;;;;;16.94;22.40;99937.47;6306660;22;20399;-78
2022/03/26 12:32:21;;;;;;;0.00;0.00;;;;;;;16.98;22.38;99929.59;6278967;22;20004;-79
2022/03/26 12:34:52;;;;;;;0.32;0.32;;;;;;;17.07;22.45;99928.59;6306449;22;20194;-79
2022/03/26 12:37:18;;;;;;;0.00;0.00;;;;;;;17.10;21.61;99929.91;6306012;22;20386;-78
2022/03/26 12:39:46;;;;;;;0.10;0.10;;;;;;;17.08;21.73;99927.50;6279017;22;20010;-78
2022/03/26 12:42:12;;;;;;;0.03;0.03;;;;;;;17.12;21.68;99923.13;6278573;22;20007;-79
2022/03/26 12:44:37;;;;;;;0.32;0.32;;;;;;;17.14;21.58;99920.13;6279098;22;20011;-78
2022/03/26 12:47:03;;;;;;;0.85;0.85;;;;;;;17.05;20.00;99914.59;6305867;22;20049;-79
2022/03/26 12:49:29;;;;;;;0.10;0.10;;;;;;;16.95;19.93;99918.28;6278941;22;20074;-79
2022/03/26 12:51:55;;;;;;;0.55;0.55;;;;;;;16.96;20.07;99903.66;6278859;22;20022;-79
2022/03/26 12:54:22;;;;;;;0.00;0.00;;;;;;;16.83;19.87;99912.50;6278915;22;20007;-78
2022/03/26 12:56:52;;;;;;;0.22;0.22;;;;;;;16.76;20.79;99899.38;6278879;22;20011;-78
2022/03/26 12:59:18;;;;;;;0.00;0.00;;;;;;;16.72;19.78;99902.97;6305898;22;20003;-78
2022/03/26 13:01:44;;;;;;;0.28;0.28;;;;;;;16.69;20.23;99908.97;6278771;22;20003;-78
2022/03/26 13:04:09;;;;;;;0.08;0.08;;;;;;;16.57;19.99;99894.03;6278443;22;20007;-78
2022/03/26 13:06:35;;;;;;;0.40;0.40;;;;;;;16.55;20.04;99896.25;6305717;22;20000;-77
2022/03/26 13:09:01;;;;;;;0.22;0.22;;;;;;;16.59;20.66;99893.75;6305622;22;19999;-78
2022/03/26 13:11:29;;;;;;;0.45;0.45;;;;;;;16.61;21.39;99888.84;6278773;22;20007;-79
2022/03/26 13:13:57;;;;;;;0.63;0.63;;;;;;;16.68;21.89;99877.66;6278760;22;20407;-79
2022/03/26 13:16:25;;;;;;;0.35;0.35;;;;;;;16.75;21.10;99881.56;6278639;22;20094;-79
2022/03/26 13:19:06;;;;;;;0.20;0.20;;;;;;;16.81;20.86;99877.69;6278739;22;20011;-79
2022/03/26 13:21:33;;;;;;;2.30;0.40;;;;;;;16.85;19.96;99871.69;6305698;22;20082;-79
2022/03/26 13:24:04;;;;;;;0.10;0.10;;;;;;;16.84;19.89;99876.28;6277901;22;19999;-79
2022/03/26 13:26:52;;;;;;;0.05;0.05;;;;;;;16.83;20.44;99873.88;6306028;22;20011;-79
2022/03/26 13:29:31;;;;;;;0.15;0.15;;;;;;;16.84;19.97;99865.47;6278406;22;20023;-78
2022/03/26 13:32:02;;;;;;;0.10;0.10;;;;;;;16.88;20.42;99855.69;6277853;22;20011;-79
2022/03/26 13:34:47;;;;;;;0.20;0.20;;;;;;;16.92;20.19;99855.94;6306023;22;20011;-79
2022/03/26 13:37:22;;;;;;;0.00;0.00;;;;;;;16.94;20.41;99853.72;6278094;22;20014;-78
2022/03/26 13:39:56;;;;;;;0.10;0.10;;;;;;;16.92;19.80;99856.72;6278546;22;20037;-79
2022/03/26 13:42:23;;;;;;;3.50;0.80;;;;;;;16.83;19.18;99844.97;6278447;22;20061;-78
2022/03/26 13:44:53;;;;;;;0.10;0.10;;;;;;;16.83;19.68;99846.88;6305640;22;20033;-77
2022/03/26 13:47:30;;;;;;;0.10;0.10;;;;;;;16.77;19.90;99833.47;6305196;22;20333;-76
2022/03/26 13:50:18;;;;;;;0.57;0.57;;;;;;;16.76;19.39;99834.56;6302942;22;20452;-81
2022/03/26 13:52:46;;;;;;;0.10;0.10;;;;;;;16.76;19.44;99836.44;6305804;22;20037;-85
2022/03/26 13:55:24;;;;;;;0.22;0.22;;;;;;;16.73;19.54;99829.75;6278017;22;20089;-82
2022/03/26 13:57:50;;;;;;;1.35;1.35;;;;;;;16.67;19.74;99830.94;6278572;22;20035;-85
2022/03/26 14:00:17;;;;;;;0.15;0.15;;;;;;;16.69;19.80;99823.34;6278193;22;20010;-85
2022/03/26 14:03:02;;;;;;;0.00;0.00;;;;;;;16.77;20.35;99830.78;6277997;22;20357;-83
2022/03/26 14:05:38;;;;;;;0.08;0.08;;;;;;;16.82;20.09;99819.06;6277955;22;20007;-83
2022/03/26 14:08:07;;;;;;;0.10;0.10;;;;;;;16.89;20.09;99818.66;6277870;22;20456;-83
2022/03/26 14:10:39;;;;;;;0.10;0.10;;;;;;;16.98;20.36;99816.09;6276383;22;20003;-80
2022/03/26 14:13:07;;;;;;;0.20;0.20;;;;;;;17.05;20.34;99821.91;6277697;22;20003;-83
2022/03/26 14:15:34;;;;;;;0.13;0.13;;;;;;;17.09;20.17;99815.59;6277788;22;20035;-82
2022/03/26 14:18:00;;;;;;;0.45;0.45;;;;;;;17.11;20.83;99818.00;6277200;22;20057;-81
2022/03/26 14:20:27;;;;;;;0.00;0.00;;;;;;;17.11;20.86;99810.72;6277255;22;20007;-82
2022/03/26 14:22:58;;;;;;;0.00;0.00;;;;;;;17.11;20.12;99820.69;6277832;22;20460;-80
2022/03/26 14:25:28;;;;;;;0.70;0.70;;;;;;;17.01;19.99;99813.59;6277155;22;20372;-79
2022/03/26 14:27:56;;;;;;;0.15;0.15;;;;;;;16.99;20.20;99820.41;6277684;22;20030;-81
2022/03/26 14:30:22;;;;;;;0.25;0.25;;;;;;;16.90;20.28;99807.56;6277056;22;20003;-81
2022/03/26 14:32:47;;;;;;;0.03;0.03;;;;;;;16.84;20.05;99807.97;6277765;22;20156;-79
2022/03/26 14:35:12;;;;;;;0.10;0.10;;;;;;;16.84;20.52;99806.06;6277272;22;20007;-79
2022/03/26 14:37:39;;;;;;;0.45;0.45;;;;;;;16.82;20.19;99805.56;6278123;22;20030;-78
2022/03/26 14:40:05;;;;;;;0.10;0.10;;;;;;;16.78;20.65;99789.16;6277502;22;20338;-78
2022/03/26 14:42:32;;;;;;;0.10;0.10;;;;;;;16.79;20.38;99796.13;6277480;22;19999;-78
2022/03/26 14:44:58;;;;;;;0.38;0.38;;;;;;;16.78;20.30;99793.75;6277809;22;20073;-78
2022/03/26 14:47:23;;;;;;;0.82;0.75;;;;;;;16.78;20.71;99788.34;6277389;22;20007;-78
2022/03/26 14:49:49;;;;;;;0.13;0.13;;;;;;;16.80;20.92;99794.25;6304985;22;20010;-79
2022/03/26 14:52:15;;;;;;;0.38;0.38;;;;;;;16.85;20.71;99786.03;6277305;22;20440;-78
2022/03/26 14:54:40;;;;;;;1.10;1.02;;;;;;;16.86;20.23;99792.28;6277704;22;20341;-79
2022/03/26 14:57:06;;;;;;;2.30;0.60;;;;;;;16.85;20.31;99788.75;6277008;22;20034;-79
2022/03/26 14:59:31;;;;;;;0.52;0.52;;;;;;;16.84;20.67;99791.75;6277317;22;20086;-79
2022/03/26 15:01:58;;;;;;;0.10;0.10;;;;;;;16.82;20.36;99789.38;6277254;22;20007;-78
2022/03/26 15:04:23;;;;;;;0.40;0.40;;;;;;;16.77;20.30;99792.97;6276959;22;20070;-78
2022/03/26 15:06:49;;;;;;;0.55;0.32;;;;;;;16.73;20.50;99786.53;6304410;22;20326;-79
2022/03/26 15:09:14;;;;;;;0.50;0.50;;;;;;;16.74;20.45;99787.34;6304270;22;20023;-78